Time;durP1;ratioP1;P1;durP2;ratioP2;P2;SDS_P1;SDS_P2;PMS_P1;PMS_P2;Temp;Humidity;BMP_temperature;BMP_pressure;BME280_temperature;BME280_humidity;BME280_pressure;Samples;Min_cycle;Max_cycle;Signal;HPM_P1;HPM_P2
2022/07/01 00:01:22;;;;;;;23.40;21.40;;;;;;;27.34;56.76;99726.97;5014700;28;100416;-94
2022/07/01 00:03:49;;;;;;;23.08;21.20;;;;;;;27.33;56.63;99721.78;5009074;28;97359;-93
2022/07/01 00:06:15;;;;;;;23.13;21.05;;;;;;;27.32;56.59;99718.25;5015544;28;97109;-94
2022/07/01 00:08:41;;;;;;;22.63;20.55;;;;;;;27.25;56.63;99720.78;5030534;27;98093;-90
2022/07/01 00:11:06;;;;;;;22.20;20.13;;;;;;;27.16;56.88;99716.44;4996887;28;101275;-96
2022/07/01 00:13:32;;;;;;;22.88;21.08;;;;;;;27.22;57.14;99725.69;5030840;27;97024;-92
2022/07/01 00:15:58;;;;;;;23.13;21.13;;;;;;;27.09;57.19;99715.44;5008118;28;96888;-96
2022/07/01 00:18:24;;;;;;;21.73;20.02;;;;;;;27.13;56.79;99716.75;5013140;28;100706;-87
2022/07/01 00:20:50;;;;;;;22.15;20.40;;;;;;;27.03;56.86;99713.44;5029510;28;100103;-95
2022/07/01 00:23:17;;;;;;;22.58;20.67;;;;;;;26.97;57.09;99720.34;4994546;28;97237;-91
2022/07/01 00:25:43;;;;;;;23.50;21.50;;;;;;;26.93;57.18;99713.63;5002413;28;96884;-96
2022/07/01 00:28:08;;;;;;;21.63;19.95;;;;;;;26.90;57.29;99702.34;5009444;28;99958;-95
2022/07/01 00:30:34;;;;;;;24.05;21.20;;;;;;;26.85;57.16;99698.34;5022472;27;97889;-95
2022/07/01 00:32:59;;;;;;;21.70;19.77;;;;;;;26.93;56.86;99710.09;5014648;28;96740;-95
2022/07/01 00:35:25;;;;;;;22.83;20.67;;;;;;;26.90;56.33;99713.13;4995656;28;96833;-93
2022/07/01 00:37:50;;;;;;;22.33;20.40;;;;;;;26.78;56.28;99718.03;5044450;28;96810;-91
2022/07/01 00:40:16;;;;;;;22.48;20.27;;;;;;;26.64;56.47;99717.72;5009653;28;99885;-92
2022/07/01 00:42:43;;;;;;;23.35;20.95;;;;;;;26.61;57.03;99706.44;5017461;28;97002;-93
2022/07/01 00:45:10;;;;;;;22.05;20.27;;;;;;;26.71;56.44;99730.50;5032866;28;96632;-94
2022/07/01 00:47:36;;;;;;;21.88;19.90;;;;;;;26.80;56.40;99734.88;5017155;28;101783;-96
2022/07/01 00:50:05;;;;;;;21.70;19.98;;;;;;;26.74;56.20;99728.31;5038472;27;97091;-91
2022/07/01 00:52:31;;;;;;;23.10;21.30;;;;;;;26.74;56.27;99730.16;5014172;28;99868;-93
2022/07/01 00:54:57;;;;;;;22.77;20.73;;;;;;;26.73;56.30;99723.91;5011983;28;97163;-92
2022/07/01 00:57:22;;;;;;;22.65;20.52;;;;;;;26.77;56.26;99721.75;5002769;28;100200;-95
2022/07/01 00:59:48;;;;;;;21.70;19.73;;;;;;;26.79;56.51;99733.16;5028316;28;98406;-95
2022/07/01 01:02:13;;;;;;;22.30;20.48;;;;;;;26.69;56.67;99736.06;5018154;28;96657;-96
2022/07/01 01:04:39;;;;;;;21.33;19.63;;;;;;;26.63;56.63;99737.56;5034931;28;96870;-95
2022/07/01 01:07:04;;;;;;;22.40;20.55;;;;;;;26.59;56.78;99727.31;5015362;28;100312;-96
2022/07/01 01:09:30;;;;;;;21.85;19.83;;;;;;;26.43;57.03;99726.28;5046733;28;97715;-86
2022/07/01 01:11:55;;;;;;;23.88;21.95;;;;;;;26.43;57.12;99728.97;5025471;28;97262;-91
2022/07/01 01:14:21;;;;;;;23.02;21.13;;;;;;;26.43;57.21;99741.59;5001387;28;97216;-94
2022/07/01 01:16:47;;;;;;;21.58;19.80;;;;;;;26.51;57.27;99743.47;5026917;28;97141;-95
2022/07/01 01:19:13;;;;;;;23.20;21.02;;;;;;;26.48;57.06;99739.25;5012001;28;98027;-95
2022/07/01 01:21:39;;;;;;;22.20;20.20;;;;;;;26.46;57.02;99735.03;4998800;28;97183;-95
2022/07/01 01:24:07;;;;;;;22.50;20.65;;;;;;;26.36;57.25;99722.59;5004924;28;96889;-96
2022/07/01 01:26:32;;;;;;;22.45;20.75;;;;;;;26.42;57.44;99727.28;5016607;28;100074;-90
2022/07/01 01:28:58;;;;;;;24.80;22.48;;;;;;;26.39;57.56;99721.41;5016108;28;98258;-96
2022/07/01 01:31:30;;;;;;;24.55;22.33;;;;;;;26.20;57.99;99696.53;5001675;28;96644;-94
2022/07/01 01:33:56;;;;;;;22.85;20.88;;;;;;;26.35;57.85;99714.69;5005346;28;97398;-94
2022/07/01 01:36:22;;;;;;;24.45;21.30;;;;;;;26.30;57.74;99712.50;4998420;28;100502;-94
2022/07/01 01:38:48;;;;;;;23.10;21.30;;;;;;;26.18;57.96;99700.41;4999596;28;100269;-95
2022/07/01 01:41:13;;;;;;;24.65;22.65;;;;;;;26.17;58.29;99701.41;5034138;28;97364;-96
2022/07/01 01:43:39;;;;;;;23.15;21.20;;;;;;;26.18;58.36;99714.69;4999928;28;97034;-95
2022/07/01 01:46:04;;;;;;;22.27;20.38;;;;;;;26.16;58.28;99710.50;5031932;28;97497;-93
2022/07/01 01:48:31;;;;;;;22.63;20.63;;;;;;;26.13;58.79;99711.66;4995177;28;100149;-95
2022/07/01 01:50:57;;;;;;;22.25;20.48;;;;;;;26.22;58.39;99730.50;5034002;28;97257;-94
2022/07/01 01:53:22;;;;;;;22.13;20.38;;;;;;;26.15;58.76;99724.91;5010503;27;97560;-95
2022/07/01 01:55:48;;;;;;;23.30;21.40;;;;;;;26.07;59.24;99720.41;5002565;28;100116;-96
2022/07/01 01:58:14;;;;;;;23.92;20.38;;;;;;;26.05;58.97;99718.88;5019288;28;97329;-94
2022/07/01 02:00:39;;;;;;;22.67;20.98;;;;;;;26.03;59.29;99712.81;5008561;28;96878;-91
2022/07/01 02:03:05;;;;;;;23.55;21.58;;;;;;;26.03;59.17;99715.50;5013874;28;97158;-96
2022/07/01 02:05:31;;;;;;;23.77;21.70;;;;;;;25.96;59.13;99708.09;5008659;28;97247;-96
2022/07/01 02:07:56;;;;;;;23.40;21.13;;;;;;;25.97;59.51;99711.63;5016791;28;101328;-95
2022/07/01 02:10:22;;;;;;;23.70;21.77;;;;;;;25.90;59.81;99703.41;5013514;28;96772;-94
2022/07/01 02:12:47;;;;;;;23.40;21.40;;;;;;;25.71;59.66;99679.47;5031097;28;97293;-95
2022/07/01 02:15:13;;;;;;;22.98;21.27;;;;;;;25.81;60.05;99700.84;5010348;28;98165;-96
2022/07/01 02:17:38;;;;;;;23.20;21.02;;;;;;;25.90;59.89;99710.63;5027990;28;98415;-95
2022/07/01 02:20:04;;;;;;;23.65;21.52;;;;;;;25.86;60.06;99706.56;4985136;28;96767;-94
2022/07/01 02:22:30;;;;;;;23.83;21.65;;;;;;;25.80;60.33;99708.03;5013227;28;96771;-94
2022/07/01 02:24:55;;;;;;;24.05;21.65;;;;;;;25.78;60.35;99699.31;4992627;28;101265;-93
2022/07/01 02:27:21;;;;;;;23.08;20.67;;;;;;;25.77;60.47;99704.84;5009660;28;101818;-95
2022/07/01 02:29:46;;;;;;;23.05;20.95;;;;;;;25.76;60.57;99709.38;5012769;28;96775;-91
2022/07/01 02:32:12;;;;;;;22.65;20.80;;;;;;;25.73;60.67;99704.34;5011895;28;96737;-92
2022/07/01 02:34:37;;;;;;;24.23;22.23;;;;;;;25.71;60.77;99700.97;5002052;28;100978;-87
2022/07/01 02:37:03;;;;;;;29.13;21.77;;;;;;;25.69;60.76;99705.69;5045792;28;98117;-93
2022/07/01 02:39:29;;;;;;;23.63;21.27;;;;;;;25.73;60.88;99707.03;5027707;28;96563;-89
2022/07/01 02:44:39;;;;;;;23.30;21.15;;;;;;;25.72;60.50;99708.06;5042569;28;96709;-93
2022/07/01 02:47:05;;;;;;;22.77;20.55;;;;;;;25.58;60.97;99714.88;5035472;28;96824;-92
2022/07/01 02:49:31;;;;;;;24.50;21.80;;;;;;;25.46;60.80;99681.28;4996217;28;97394;-95
2022/07/01 02:51:56;;;;;;;26.27;24.10;;;;;;;25.62;60.81;99713.56;5033413;28;96813;-93
2022/07/01 02:54:22;;;;;;;24.17;22.27;;;;;;;25.54;60.76;99702.81;4994695;28;100460;-92
2022/07/01 02:56:47;;;;;;;23.58;21.67;;;;;;;25.60;60.89;99712.03;5015239;28;101526;-95
2022/07/01 02:59:12;;;;;;;24.85;22.70;;;;;;;25.58;60.54;99700.63;5035377;28;97325;-96
2022/07/01 03:01:38;;;;;;;23.98;22.17;;;;;;;25.59;60.67;99718.41;5009724;28;96698;-92
2022/07/01 03:04:03;;;;;;;24.20;21.88;;;;;;;25.55;61.01;99720.59;5001622;28;100881;-96
2022/07/01 03:06:29;;;;;;;23.50;21.60;;;;;;;25.56;60.46;99708.00;5005551;28;97726;-88
2022/07/01 03:08:55;;;;;;;22.77;20.85;;;;;;;25.53;60.28;99712.69;4998087;28;96786;-93
2022/07/01 03:11:21;;;;;;;24.70;22.77;;;;;;;25.59;60.33;99726.47;4998531;28;97260;-93
2022/07/01 03:13:46;;;;;;;24.60;22.23;;;;;;;25.57;60.06;99729.34;4996369;28;100367;-94
2022/07/01 03:16:12;;;;;;;24.23;22.25;;;;;;;25.55;60.08;99730.50;5023821;28;97385;-92
2022/07/01 03:18:37;;;;;;;23.30;21.40;;;;;;;25.51;59.95;99716.53;4995008;28;97339;-94
2022/07/01 03:21:03;;;;;;;24.58;22.05;;;;;;;25.41;59.96;99689.81;4998761;28;96947;-94
2022/07/01 03:23:28;;;;;;;23.92;22.08;;;;;;;25.63;60.15;99715.25;5027566;28;97616;-96
2022/07/01 03:25:54;;;;;;;24.35;22.40;;;;;;;25.61;60.35;99721.78;5023586;28;101303;-94
2022/07/01 03:28:21;;;;;;;25.52;23.38;;;;;;;25.65;60.25;99731.19;4998179;28;96873;-95
2022/07/01 03:30:46;;;;;;;24.65;22.75;;;;;;;25.61;60.44;99721.78;5007280;28;98174;-91
2022/07/01 03:33:11;;;;;;;23.77;21.77;;;;;;;25.65;60.46;99718.59;5015094;28;101118;-94
2022/07/01 03:35:39;;;;;;;23.88;21.70;;;;;;;25.73;60.13;99724.00;5011307;28;100673;-96
2022/07/01 03:38:05;;;;;;;24.38;22.02;;;;;;;25.72;60.15;99716.94;5015181;28;97046;-95
2022/07/01 03:40:32;;;;;;;23.95;22.00;;;;;;;25.81;59.99;99715.13;5027153;28;96858;-90
2022/07/01 03:42:57;;;;;;;24.50;22.20;;;;;;;25.66;58.97;99725.66;5030834;27;97501;-94
2022/07/01 03:45:23;;;;;;;24.05;22.08;;;;;;;25.68;59.08;99725.50;5005919;28;100822;-88
2022/07/01 03:47:49;;;;;;;23.17;21.42;;;;;;;25.72;58.62;99714.25;5014263;28;97226;-93
2022/07/01 03:50:16;;;;;;;23.38;21.05;;;;;;;25.84;58.06;99738.19;5008837;28;99606;-95
2022/07/01 03:52:42;;;;;;;22.35;20.48;;;;;;;25.96;57.82;99731.47;5031208;28;98118;-93
2022/07/01 03:55:11;;;;;;;21.05;19.35;;;;;;;25.86;57.57;99717.31;4993041;28;100544;-94
2022/07/01 03:57:37;;;;;;;21.73;19.70;;;;;;;25.97;56.99;99727.75;4998098;28;96952;-95
2022/07/01 04:00:02;;;;;;;22.85;20.92;;;;;;;26.06;57.11;99726.75;5015880;28;96833;-96
2022/07/01 04:02:30;;;;;;;23.92;21.83;;;;;;;25.88;56.24;99721.53;5038576;28;97018;-91
2022/07/01 04:04:56;;;;;;;23.13;20.92;;;;;;;25.59;56.98;99747.97;5006962;28;101346;-94
2022/07/01 04:07:21;;;;;;;22.80;20.88;;;;;;;24.90;58.31;99739.03;5033890;28;96880;-93
2022/07/01 04:09:47;;;;;;;25.77;23.05;;;;;;;24.51;59.55;99742.13;4997079;28;96928;-93
2022/07/01 04:12:13;;;;;;;30.13;24.80;;;;;;;24.34;59.96;99743.81;5012858;28;100673;-94
2022/07/01 04:14:38;;;;;;;25.48;23.10;;;;;;;24.15;60.35;99753.72;5020520;28;100082;-91
2022/07/01 04:17:04;;;;;;;24.60;22.10;;;;;;;24.42;59.90;99754.59;5017620;28;96854;-92
2022/07/01 04:19:30;;;;;;;25.35;23.02;;;;;;;24.72;58.93;99753.34;5008352;28;97090;-96
2022/07/01 04:24:39;;;;;;;22.05;19.90;;;;;;;25.00;57.45;99737.09;5025094;28;98341;-95
2022/07/01 04:27:05;;;;;;;21.83;20.02;;;;;;;24.93;57.99;99761.06;4993154;28;97199;-89
2022/07/01 04:29:30;;;;;;;22.98;21.02;;;;;;;24.58;58.37;99752.09;5010848;28;97205;-93
2022/07/01 04:31:57;;;;;;;22.38;20.00;;;;;;;24.71;58.31;99756.22;5011607;28;100749;-94
2022/07/01 04:34:22;;;;;;;22.08;20.38;;;;;;;24.88;58.08;99743.75;5015971;28;97063;-96
2022/07/01 04:36:48;;;;;;;21.75;20.05;;;;;;;25.15;57.77;99758.88;5046983;28;96522;-87
2022/07/01 04:39:13;;;;;;;22.08;20.20;;;;;;;25.26;57.20;99743.31;5029060;28;96871;-93
2022/07/01 04:44:23;;;;;;;22.30;20.33;;;;;;;25.59;56.24;99756.03;5032395;28;97110;-93
2022/07/01 04:46:48;;;;;;;21.55;20.05;;;;;;;25.55;56.55;99757.38;5005677;28;96924;-91
2022/07/01 04:49:14;;;;;;;21.20;19.15;;;;;;;25.61;56.51;99760.25;5026118;28;96766;-95
2022/07/01 04:51:39;;;;;;;21.67;19.70;;;;;;;25.67;56.22;99753.38;5013462;28;100338;-94
2022/07/01 04:54:06;;;;;;;22.13;20.25;;;;;;;25.64;56.09;99748.34;5021926;27;99894;-95
2022/07/01 04:56:31;;;;;;;23.73;21.70;;;;;;;25.52;56.70;99762.06;5014551;28;97498;-92
2022/07/01 04:58:57;;;;;;;22.23;19.77;;;;;;;25.41;56.82;99761.50;5015043;28;96980;-93
2022/07/01 05:01:23;;;;;;;22.23;20.30;;;;;;;25.44;57.02;99753.97;5022840;28;97135;-95
2022/07/01 05:03:48;;;;;;;22.48;20.58;;;;;;;25.33;56.89;99731.91;5029416;28;101102;-95
2022/07/01 05:06:14;;;;;;;21.50;19.75;;;;;;;25.70;56.59;99737.75;5021610;28;96851;-94
2022/07/01 05:08:39;;;;;;;23.52;20.17;;;;;;;25.84;56.50;99730.94;4998267;28;97573;-95
2022/07/01 05:11:06;;;;;;;23.60;21.75;;;;;;;26.07;55.79;99730.31;4997168;28;101085;-95
2022/07/01 05:13:33;;;;;;;28.58;21.65;;;;;;;25.82;55.38;99729.41;5012585;28;101548;-90
2022/07/01 05:15:59;;;;;;;23.83;21.48;;;;;;;25.72;56.29;99725.00;5025429;28;98953;-95
2022/07/01 05:23:52;;;;;;;22.58;20.58;;;;;;;26.53;54.86;99727.97;5016157;28;98309;-95
2022/07/01 05:26:18;;;;;;;22.42;20.13;;;;;;;26.79;54.34;99734.03;5011427;28;97327;-90
2022/07/01 05:28:44;;;;;;;21.73;19.83;;;;;;;26.71;54.14;99719.75;5029637;28;96785;-92
2022/07/01 05:31:10;;;;;;;22.25;20.33;;;;;;;26.89;54.19;99739.22;4987421;28;100212;-91
2022/07/01 05:33:35;;;;;;;22.75;20.45;;;;;;;26.69;54.41;99744.13;5008904;28;97416;-90
2022/07/01 05:36:01;;;;;;;23.13;21.40;;;;;;;26.82;54.27;99752.53;5004852;28;98500;-93
2022/07/01 05:38:27;;;;;;;25.55;21.65;;;;;;;27.00;53.90;99755.00;4992056;28;96857;-93
2022/07/01 05:40:53;;;;;;;22.77;20.77;;;;;;;27.35;53.53;99750.22;4993668;28;100788;-94
2022/07/01 05:43:19;;;;;;;22.85;20.85;;;;;;;27.36;52.93;99754.59;5015569;28;98917;-90
2022/07/01 05:45:45;;;;;;;22.48;20.77;;;;;;;27.02;53.68;99744.06;5012036;28;97458;-93
2022/07/01 05:48:10;;;;;;;23.05;20.63;;;;;;;27.13;53.96;99741.00;5014083;28;97212;-93
2022/07/01 05:50:36;;;;;;;22.67;20.42;;;;;;;27.07;53.67;99739.00;4999650;28;101669;-92
2022/07/01 05:53:02;;;;;;;23.48;21.52;;;;;;;27.11;53.97;99743.00;5014370;28;97666;-93
2022/07/01 05:55:28;;;;;;;23.20;20.90;;;;;;;27.67;53.09;99740.31;4993036;28;96711;-93
2022/07/01 05:57:54;;;;;;;22.50;20.60;;;;;;;28.40;50.88;99750.63;5011045;28;97015;-92
2022/07/01 06:00:19;;;;;;;24.40;20.85;;;;;;;28.82;49.89;99751.94;5011785;28;101680;-93
2022/07/01 06:02:45;;;;;;;21.80;20.10;;;;;;;29.49;48.58;99734.81;5028714;28;96985;-94
2022/07/01 06:05:13;;;;;;;22.35;20.30;;;;;;;30.28;46.90;99739.47;4993198;28;97452;-92
2022/07/01 06:07:40;;;;;;;22.05;20.15;;;;;;;30.89;45.49;99733.53;5009957;28;97838;-93
2022/07/01 06:10:12;;;;;;;22.45;20.13;;;;;;;31.38;44.25;99734.47;5013752;28;97748;-94
2022/07/01 06:12:39;;;;;;;21.20;19.30;;;;;;;32.49;42.30;99726.00;5016008;28;97673;-94
2022/07/01 06:15:10;;;;;;;21.30;19.48;;;;;;;33.45;40.78;99725.41;4992769;28;96997;-94
2022/07/01 06:17:36;;;;;;;23.58;20.15;;;;;;;32.92;41.01;99739.97;4997992;28;98143;-92
2022/07/01 06:20:02;;;;;;;21.48;19.40;;;;;;;32.11;42.94;99734.72;5014155;28;98644;-94
2022/07/01 06:22:27;;;;;;;22.55;20.48;;;;;;;32.85;41.85;99718.25;4998231;28;100701;-93
2022/07/01 06:24:53;;;;;;;21.35;19.63;;;;;;;33.83;40.22;99735.50;5009115;28;96729;-89
2022/07/01 06:27:18;;;;;;;22.48;20.27;;;;;;;34.30;39.49;99734.19;5012280;28;96873;-93
2022/07/01 06:29:44;;;;;;;22.33;20.10;;;;;;;34.97;38.50;99731.72;4998861;28;102354;-91
2022/07/01 06:32:09;;;;;;;21.73;19.63;;;;;;;35.91;37.46;99728.72;4995797;28;100226;-89
2022/07/01 06:34:35;;;;;;;21.23;19.48;;;;;;;36.81;36.47;99731.31;5015005;28;96681;-93
2022/07/01 06:37:01;;;;;;;20.65;18.75;;;;;;;36.83;35.70;99718.22;5014786;28;97232;-92
2022/07/01 06:39:27;;;;;;;20.88;18.77;;;;;;;37.29;35.17;99702.81;5028885;28;98251;-93
2022/07/01 06:41:53;;;;;;;21.50;19.65;;;;;;;38.27;34.18;99700.84;4988250;28;101791;-96
2022/07/01 06:44:18;;;;;;;21.13;19.50;;;;;;;38.45;33.32;99699.78;5014074;28;97399;-91
2022/07/01 06:46:44;;;;;;;20.42;18.52;;;;;;;38.90;32.92;99711.75;5010202;28;97358;-93
2022/07/01 06:49:10;;;;;;;21.15;18.98;;;;;;;39.42;31.82;99710.47;5020275;28;98511;-93
2022/07/01 06:51:35;;;;;;;20.52;18.70;;;;;;;39.92;31.65;99704.75;5014017;28;101417;-93
2022/07/01 06:54:01;;;;;;;21.95;20.02;;;;;;;39.76;30.74;99698.25;5015342;28;97279;-94
2022/07/01 06:56:26;;;;;;;20.10;18.70;;;;;;;40.11;30.76;99690.63;5004959;28;97346;-92
2022/07/01 06:58:52;;;;;;;23.70;19.13;;;;;;;39.64;31.19;99704.97;5001374;28;100692;-96
2022/07/01 07:01:17;;;;;;;19.95;18.20;;;;;;;40.27;31.22;99701.50;5012164;28;99705;-95
2022/07/01 07:03:43;;;;;;;20.45;18.63;;;;;;;40.78;30.41;99689.22;5012598;28;96733;-95
2022/07/01 07:06:08;;;;;;;21.15;19.25;;;;;;;40.57;30.73;99699.25;5006196;28;97111;-94
2022/07/01 07:08:34;;;;;;;20.88;18.95;;;;;;;40.75;30.49;99698.81;5020412;28;98262;-90
2022/07/01 07:11:00;;;;;;;20.45;18.85;;;;;;;41.34;29.59;99692.28;5014400;28;98324;-94
2022/07/01 07:13:25;;;;;;;21.42;19.73;;;;;;;40.36;31.34;99692.78;4999011;28;96798;-94
2022/07/01 07:15:51;;;;;;;22.33;20.65;;;;;;;41.18;30.36;99692.19;5006829;28;98090;-96
2022/07/01 07:18:17;;;;;;;21.33;19.33;;;;;;;41.97;29.46;99695.75;5006834;28;97896;-90
2022/07/01 07:20:43;;;;;;;20.33;18.67;;;;;;;42.44;28.70;99694.63;5014017;28;98606;-94
2022/07/01 07:23:08;;;;;;;20.83;19.15;;;;;;;42.45;28.69;99688.03;5004862;28;96919;-90
2022/07/01 07:25:34;;;;;;;19.75;18.23;;;;;;;42.23;29.12;99688.28;5015414;28;96850;-89
2022/07/01 07:27:59;;;;;;;20.63;18.92;;;;;;;41.87;29.62;99681.13;5027734;28;98133;-90
2022/07/01 07:30:25;;;;;;;21.95;20.25;;;;;;;42.09;28.70;99683.63;5007220;28;101723;-91
2022/07/01 07:32:50;;;;;;;21.38;19.77;;;;;;;41.46;29.89;99679.09;5014422;28;96673;-89
2022/07/01 07:35:16;;;;;;;19.70;18.38;;;;;;;41.93;29.70;99702.09;5001215;28;97222;-88
2022/07/01 07:37:42;;;;;;;21.23;19.42;;;;;;;41.05;30.65;99695.47;5012136;28;98997;-90
2022/07/01 07:40:09;;;;;;;21.17;19.38;;;;;;;40.77;30.79;99702.16;5006176;28;100725;-91
2022/07/01 07:42:36;;;;;;;22.40;20.48;;;;;;;40.20;31.44;99709.13;5029686;28;96698;-92
2022/07/01 07:45:02;;;;;;;21.30;19.73;;;;;;;40.51;31.55;99703.88;5003551;28;96907;-90
2022/07/01 07:47:28;;;;;;;22.08;20.00;;;;;;;40.36;31.57;99701.03;5005839;28;100569;-93
2022/07/01 07:49:53;;;;;;;21.42;19.63;;;;;;;39.25;33.35;99705.88;5030192;28;97573;-93
2022/07/01 07:52:19;;;;;;;21.30;19.38;;;;;;;39.34;33.50;99709.88;5016190;28;97419;-93
2022/07/01 07:54:44;;;;;;;21.02;19.13;;;;;;;40.50;32.33;99699.47;5001869;28;97285;-93
2022/07/01 07:57:10;;;;;;;18.95;17.55;;;;;;;41.56;31.01;99695.66;4998124;28;97185;-92
2022/07/01 07:59:35;;;;;;;21.20;19.40;;;;;;;42.17;29.90;99694.91;5019743;28;97553;-94
2022/07/01 08:02:01;;;;;;;20.73;19.08;;;;;;;42.56;29.14;99701.78;5006738;28;98637;-93
2022/07/01 08:04:27;;;;;;;19.95;18.65;;;;;;;42.76;28.99;99701.78;5024096;28;97527;-92
2022/07/01 08:06:53;;;;;;;20.02;18.17;;;;;;;43.26;28.80;99694.47;4994991;28;101642;-93
2022/07/01 08:09:18;;;;;;;19.73;17.98;;;;;;;42.62;29.25;99684.97;4995068;28;100986;-92
2022/07/01 08:11:44;;;;;;;21.30;19.17;;;;;;;40.67;31.21;99693.81;5011810;28;97592;-91
2022/07/01 08:14:10;;;;;;;19.65;17.95;;;;;;;38.39;34.77;99695.28;5006860;28;96868;-92
2022/07/01 08:16:35;;;;;;;19.98;18.30;;;;;;;39.01;34.10;99690.75;5005656;28;98522;-92
2022/07/01 08:19:02;;;;;;;19.77;17.88;;;;;;;38.73;34.22;99695.28;5008151;28;101114;-92
2022/07/01 08:21:28;;;;;;;19.58;18.30;;;;;;;38.45;34.43;99688.00;5006668;28;97394;-93
2022/07/01 08:23:54;;;;;;;21.02;19.27;;;;;;;39.77;32.88;99683.47;5008058;28;96966;-89
2022/07/01 08:26:20;;;;;;;20.95;19.33;;;;;;;41.08;31.67;99691.34;5018925;28;97959;-90
2022/07/01 08:28:45;;;;;;;20.27;18.67;;;;;;;42.04;30.28;99699.06;5005680;28;97996;-89
2022/07/01 08:31:11;;;;;;;19.77;18.27;;;;;;;42.79;29.46;99689.38;4996678;28;97304;-90
2022/07/01 08:33:39;;;;;;;20.63;18.92;;;;;;;42.32;29.20;99698.81;5008143;28;97363;-88
2022/07/01 08:36:06;;;;;;;19.45;17.95;;;;;;;42.40;29.20;99689.97;4997885;28;101907;-90
2022/07/01 08:38:32;;;;;;;19.88;18.17;;;;;;;42.27;29.65;99694.09;5008734;28;100022;-90
2022/07/01 08:40:57;;;;;;;20.75;19.00;;;;;;;41.18;30.51;99694.13;5006315;28;96741;-93
2022/07/01 08:43:23;;;;;;;19.27;17.45;;;;;;;40.88;31.73;99703.88;5008094;28;96843;-89
2022/07/01 08:45:50;;;;;;;20.92;18.85;;;;;;;40.40;32.40;99699.41;5004469;28;100841;-89
2022/07/01 08:48:16;;;;;;;19.98;18.10;;;;;;;39.98;33.01;99703.69;4992075;28;100929;-90
2022/07/01 08:50:41;;;;;;;19.27;17.45;;;;;;;40.11;32.94;99705.19;5029468;27;96953;-89
2022/07/01 08:53:08;;;;;;;20.20;18.40;;;;;;;40.36;32.82;99703.78;4999240;28;96861;-92
2022/07/01 08:56:40;;;;;;;20.40;18.60;;;;;;;40.29;30.44;99706.72;4989362;28;101545;-91
2022/07/01 08:58:21;;;;;;;19.30;17.80;;;;;;;40.47;30.96;99705.50;5011804;28;100298;-91
2022/07/01 09:00:46;;;;;;;19.88;18.02;;;;;;;40.44;31.23;99697.78;4996888;28;97242;-91
2022/07/01 09:03:12;;;;;;;19.23;17.88;;;;;;;39.74;32.00;99703.22;5011417;28;97389;-92
2022/07/01 09:05:37;;;;;;;18.83;17.45;;;;;;;39.79;32.58;99699.66;5006393;28;101220;-87
2022/07/01 09:08:04;;;;;;;20.05;18.20;;;;;;;39.43;32.69;99691.03;5004719;28;100870;-87
2022/07/01 09:10:33;;;;;;;20.35;18.50;;;;;;;38.86;33.74;99681.22;5005790;28;97756;-87
2022/07/01 09:13:07;;;;;;;19.83;18.38;;;;;;;38.42;34.63;99692.06;5024465;28;96862;-87
2022/07/01 09:15:33;;;;;;;20.55;19.08;;;;;;;37.93;35.79;99679.97;4983995;28;101391;-87
2022/07/01 09:18:10;;;;;;;19.65;18.08;;;;;;;37.88;35.76;99683.47;5000204;28;101039;-87
2022/07/01 09:20:37;;;;;;;20.48;18.55;;;;;;;38.34;35.93;99670.56;5003408;28;97299;-87
2022/07/01 09:23:14;;;;;;;19.63;18.17;;;;;;;38.44;35.64;99678.97;5022492;28;97472;-87
2022/07/01 09:25:49;;;;;;;19.95;18.35;;;;;;;38.54;35.13;99671.97;5009513;28;101029;-87
2022/07/01 09:28:17;;;;;;;19.67;18.13;;;;;;;38.73;34.65;99674.16;5021394;28;98516;-87
2022/07/01 09:30:53;;;;;;;19.92;18.52;;;;;;;38.08;35.61;99672.06;5022545;28;97195;-86
2022/07/01 09:33:20;;;;;;;19.98;18.10;;;;;;;37.66;36.15;99682.50;5015154;27;97801;-86
2022/07/01 09:35:50;;;;;;;19.92;18.33;;;;;;;37.33;36.73;99679.38;5009175;27;100938;-86
2022/07/01 09:38:18;;;;;;;20.02;18.33;;;;;;;37.03;37.63;99692.41;4989861;28;101434;-85
2022/07/01 09:40:53;;;;;;;19.95;18.27;;;;;;;36.80;38.07;99694.09;5002430;28;97754;-85
2022/07/01 09:43:21;;;;;;;19.73;18.20;;;;;;;36.66;37.91;99682.56;5006066;28;97445;-86
2022/07/01 09:45:55;;;;;;;19.60;18.20;;;;;;;36.51;37.78;99665.81;5000647;28;97325;-86
2022/07/01 09:48:27;;;;;;;20.55;18.77;;;;;;;36.46;37.79;99682.06;4984852;28;101471;-85
2022/07/01 09:50:53;;;;;;;19.90;18.15;;;;;;;36.31;37.67;99673.53;5006503;28;97076;-85
2022/07/01 09:53:19;;;;;;;18.73;17.35;;;;;;;36.30;37.32;99671.84;5003300;28;97260;-85
2022/07/01 09:55:44;;;;;;;19.48;17.60;;;;;;;36.35;37.34;99670.06;4977355;28;101345;-85
2022/07/01 09:58:10;;;;;;;19.02;17.42;;;;;;;36.56;37.66;99659.63;5002893;28;101256;-85
2022/07/01 10:00:37;;;;;;;18.55;16.98;;;;;;;36.79;37.69;99664.25;5003642;28;97887;-85
2022/07/01 10:03:04;;;;;;;19.20;17.77;;;;;;;36.47;37.42;99657.22;4986998;28;97033;-87
2022/07/01 10:05:31;;;;;;;19.95;18.55;;;;;;;35.87;37.94;99651.94;5011474;28;98004;-86
2022/07/01 10:08:34;;;;;;;20.73;19.13;;;;;;;35.70;38.62;99664.59;4983056;28;101328;-86
2022/07/01 10:11:05;;;;;;;19.42;18.10;;;;;;;35.36;39.15;99669.63;5016266;28;97086;-85
2022/07/01 10:13:31;;;;;;;20.70;18.88;;;;;;;35.31;39.61;99664.00;5005980;28;97217;-86
2022/07/01 10:15:57;;;;;;;19.50;17.83;;;;;;;35.49;39.55;99657.69;5016976;28;98442;-86
2022/07/01 10:18:25;;;;;;;19.30;17.95;;;;;;;35.67;39.42;99665.88;4996358;28;96917;-87
2022/07/01 10:20:52;;;;;;;18.77;17.38;;;;;;;35.68;38.97;99664.81;5005477;28;97476;-85
2022/07/01 10:23:21;;;;;;;19.20;17.80;;;;;;;35.63;38.94;99655.63;5022206;28;97492;-85
2022/07/01 10:25:51;;;;;;;20.60;18.73;;;;;;;35.17;38.34;99627.06;4996258;28;101544;-84
2022/07/01 10:28:22;;;;;;;20.40;18.50;;;;;;;35.18;39.02;99640.47;5001776;28;101692;-85
2022/07/01 10:31:00;;;;;;;19.65;17.80;;;;;;;35.17;38.63;99632.53;5021691;28;96870;-84
2022/07/01 10:33:34;;;;;;;19.95;18.35;;;;;;;35.15;38.71;99609.03;5004994;28;97348;-87
2022/07/01 10:36:08;;;;;;;19.83;18.23;;;;;;;35.23;39.28;99618.81;4987262;28;101776;-91
2022/07/01 10:38:34;;;;;;;20.05;17.73;;;;;;;34.87;37.81;99615.03;5006465;28;101177;-91
2022/07/01 10:41:11;;;;;;;19.00;17.38;;;;;;;34.80;38.78;99606.09;5007128;28;97424;-91
2022/07/01 10:43:39;;;;;;;18.63;17.20;;;;;;;34.92;38.45;99606.16;5009562;28;96817;-91
2022/07/01 10:46:04;;;;;;;22.83;18.00;;;;;;;35.03;37.93;99602.69;5003831;28;98664;-90
2022/07/01 10:48:33;;;;;;;20.42;18.58;;;;;;;34.95;37.15;99594.81;5011336;28;98311;-89
2022/07/01 10:51:00;;;;;;;18.53;17.10;;;;;;;34.82;37.25;99608.59;4995086;28;97514;-92
2022/07/01 10:53:42;;;;;;;19.38;17.60;;;;;;;34.79;37.52;99614.50;5010050;28;97146;-92
2022/07/01 10:56:08;;;;;;;18.10;16.90;;;;;;;34.82;37.82;99625.78;4997909;28;98829;-93
2022/07/01 10:58:38;;;;;;;18.13;16.73;;;;;;;34.79;38.05;99639.03;5000553;28;101204;-89
2022/07/01 11:01:04;;;;;;;19.77;17.80;;;;;;;34.97;38.25;99652.66;5001746;28;97192;-90
2022/07/01 11:03:35;;;;;;;18.88;17.35;;;;;;;35.00;38.27;99643.22;5009191;28;97341;-90
2022/07/01 11:06:00;;;;;;;19.33;17.92;;;;;;;34.81;38.49;99664.16;5013112;28;101487;-91
2022/07/01 11:08:26;;;;;;;19.92;17.50;;;;;;;34.67;38.53;99655.28;5012446;28;98240;-90
2022/07/01 11:10:55;;;;;;;18.67;17.33;;;;;;;34.59;38.76;99658.31;5017442;28;97564;-90
2022/07/01 11:13:21;;;;;;;17.63;16.27;;;;;;;34.17;38.54;99622.66;4991362;28;98255;-92
2022/07/01 11:15:47;;;;;;;18.15;16.67;;;;;;;34.03;37.75;99625.50;4996950;28;98113;-92
2022/07/01 11:18:15;;;;;;;19.05;17.67;;;;;;;34.14;37.73;99625.81;5004103;28;101081;-92
2022/07/01 11:20:40;;;;;;;21.77;20.15;;;;;;;34.12;38.18;99627.91;5024773;28;98101;-89
2022/07/01 11:23:06;;;;;;;22.23;20.23;;;;;;;33.99;38.46;99620.69;4994212;28;97667;-91
2022/07/01 11:25:31;;;;;;;15.95;14.45;;;;;;;34.13;39.19;99637.78;5027668;28;97951;-90